sensor_id;sensor_type;location;lat;lon;timestamp;temperature;humidity
68912;SHT31;55953;51.650;-0.522;2022-09-09T00:02:25;16.68;88.97
68912;SHT31;55953;51.650;-0.522;2022-09-09T00:04:59;16.67;89.24
68912;SHT31;55953;51.650;-0.522;2022-09-09T00:07:54;16.74;89.37
68912;SHT31;55953;51.650;-0.522;2022-09-09T00:10:29;16.76;89.06
68912;SHT31;55953;51.650;-0.522;2022-09-09T00:18:49;16.76;89.04
68912;SHT31;55953;51.650;-0.522;2022-09-09T00:21:38;16.72;88.90
68912;SHT31;55953;51.650;-0.522;2022-09-09T00:24:36;16.65;89.05
68912;SHT31;55953;51.650;-0.522;2022-09-09T00:27:47;16.76;89.27
68912;SHT31;55953;51.650;-0.522;2022-09-09T00:30:21;16.74;89.03
68912;SHT31;55953;51.650;-0.522;2022-09-09T00:32:53;16.76;88.92
68912;SHT31;55953;51.650;-0.522;2022-09-09T00:35:27;16.76;89.08
68912;SHT31;55953;51.650;-0.522;2022-09-09T00:38:08;16.84;89.00
68912;SHT31;55953;51.650;-0.522;2022-09-09T00:40:48;16.79;88.85
68912;SHT31;55953;51.650;-0.522;2022-09-09T00:43:40;16.75;88.73
68912;SHT31;55953;51.650;-0.522;2022-09-09T00:55:10;16.68;88.94
68912;SHT31;55953;51.650;-0.522;2022-09-09T00:57:46;16.68;88.97
68912;SHT31;55953;51.650;-0.522;2022-09-09T01:02:57;16.64;89.04
68912;SHT31;55953;51.650;-0.522;2022-09-09T01:11:55;16.71;88.86
68912;SHT31;55953;51.650;-0.522;2022-09-09T01:17:11;16.73;88.84
68912;SHT31;55953;51.650;-0.522;2022-09-09T01:28:52;16.60;88.83
68912;SHT31;55953;51.650;-0.522;2022-09-09T01:31:32;16.54;88.96
68912;SHT31;55953;51.650;-0.522;2022-09-09T01:34:13;16.47;88.99
68912;SHT31;55953;51.650;-0.522;2022-09-09T01:36:53;16.44;89.16
68912;SHT31;55953;51.650;-0.522;2022-09-09T01:39:32;16.44;89.30
68912;SHT31;55953;51.650;-0.522;2022-09-09T01:42:08;16.45;89.21
68912;SHT31;55953;51.650;-0.522;2022-09-09T01:44:39;16.39;89.11
68912;SHT31;55953;51.650;-0.522;2022-09-09T01:47:07;16.37;89.18
68912;SHT31;55953;51.650;-0.522;2022-09-09T01:49:47;16.34;89.25
68912;SHT31;55953;51.650;-0.522;2022-09-09T01:52:21;16.38;89.32
68912;SHT31;55953;51.650;-0.522;2022-09-09T01:54:49;16.34;89.14
68912;SHT31;55953;51.650;-0.522;2022-09-09T02:00:19;16.30;89.36
68912;SHT31;55953;51.650;-0.522;2022-09-09T02:02:56;16.32;89.39
68912;SHT31;55953;51.650;-0.522;2022-09-09T02:05:55;16.31;89.33
68912;SHT31;55953;51.650;-0.522;2022-09-09T02:08:49;16.28;89.28
68912;SHT31;55953;51.650;-0.522;2022-09-09T02:11:23;16.27;89.26
68912;SHT31;55953;51.650;-0.522;2022-09-09T02:14:01;16.27;89.33
68912;SHT31;55953;51.650;-0.522;2022-09-09T02:16:39;16.25;89.17
68912;SHT31;55953;51.650;-0.522;2022-09-09T02:19:22;16.26;89.46
68912;SHT31;55953;51.650;-0.522;2022-09-09T02:22:03;16.28;89.26
68912;SHT31;55953;51.650;-0.522;2022-09-09T02:24:33;16.24;88.93
68912;SHT31;55953;51.650;-0.522;2022-09-09T02:27:17;16.10;88.72
68912;SHT31;55953;51.650;-0.522;2022-09-09T02:29:46;15.94;88.90
68912;SHT31;55953;51.650;-0.522;2022-09-09T02:32:23;15.85;89.09
68912;SHT31;55953;51.650;-0.522;2022-09-09T02:34:57;15.78;89.22
68912;SHT31;55953;51.650;-0.522;2022-09-09T02:37:40;15.77;89.40
68912;SHT31;55953;51.650;-0.522;2022-09-09T02:40:14;15.76;89.37
68912;SHT31;55953;51.650;-0.522;2022-09-09T02:42:46;15.75;89.54
68912;SHT31;55953;51.650;-0.522;2022-09-09T02:45:24;15.74;89.51
68912;SHT31;55953;51.650;-0.522;2022-09-09T02:48:17;15.72;89.46
68912;SHT31;55953;51.650;-0.522;2022-09-09T02:51:16;15.68;89.55
68912;SHT31;55953;51.650;-0.522;2022-09-09T02:54:58;15.66;89.65
68912;SHT31;55953;51.650;-0.522;2022-09-09T02:57:11;15.69;89.74
68912;SHT31;55953;51.650;-0.522;2022-09-09T02:59:51;15.73;89.77
68912;SHT31;55953;51.650;-0.522;2022-09-09T03:02:22;15.73;89.75
68912;SHT31;55953;51.650;-0.522;2022-09-09T03:04:53;15.76;89.76
68912;SHT31;55953;51.650;-0.522;2022-09-09T03:07:21;15.75;89.65
68912;SHT31;55953;51.650;-0.522;2022-09-09T03:09:49;15.74;89.69
68912;SHT31;55953;51.650;-0.522;2022-09-09T03:12:17;15.72;89.75
68912;SHT31;55953;51.650;-0.522;2022-09-09T03:14:45;15.70;89.88
68912;SHT31;55953;51.650;-0.522;2022-09-09T03:17:14;15.69;89.86
68912;SHT31;55953;51.650;-0.522;2022-09-09T03:19:47;15.68;89.87
68912;SHT31;55953;51.650;-0.522;2022-09-09T03:22:17;15.67;90.03
68912;SHT31;55953;51.650;-0.522;2022-09-09T03:24:45;15.68;90.18
68912;SHT31;55953;51.650;-0.522;2022-09-09T03:27:14;15.70;90.10
68912;SHT31;55953;51.650;-0.522;2022-09-09T03:29:42;15.70;90.06
68912;SHT31;55953;51.650;-0.522;2022-09-09T03:32:13;15.66;90.18
68912;SHT31;55953;51.650;-0.522;2022-09-09T03:34:40;15.67;90.26
68912;SHT31;55953;51.650;-0.522;2022-09-09T03:37:10;15.66;90.26
68912;SHT31;55953;51.650;-0.522;2022-09-09T03:39:39;15.66;90.30
68912;SHT31;55953;51.650;-0.522;2022-09-09T03:42:07;15.66;90.34
68912;SHT31;55953;51.650;-0.522;2022-09-09T03:44:35;15.70;90.33
68912;SHT31;55953;51.650;-0.522;2022-09-09T03:47:03;15.71;90.24
68912;SHT31;55953;51.650;-0.522;2022-09-09T03:49:31;15.70;90.25
68912;SHT31;55953;51.650;-0.522;2022-09-09T03:51:59;15.69;90.28
68912;SHT31;55953;51.650;-0.522;2022-09-09T03:54:29;15.70;90.23
68912;SHT31;55953;51.650;-0.522;2022-09-09T03:56:56;15.70;90.27
68912;SHT31;55953;51.650;-0.522;2022-09-09T03:59:25;15.69;90.23
68912;SHT31;55953;51.650;-0.522;2022-09-09T04:01:53;15.69;90.25
68912;SHT31;55953;51.650;-0.522;2022-09-09T04:04:22;15.69;90.25
68912;SHT31;55953;51.650;-0.522;2022-09-09T04:06:50;15.68;90.28
68912;SHT31;55953;51.650;-0.522;2022-09-09T04:09:18;15.68;90.39
68912;SHT31;55953;51.650;-0.522;2022-09-09T04:11:47;15.68;90.29
68912;SHT31;55953;51.650;-0.522;2022-09-09T04:14:16;15.69;90.24
68912;SHT31;55953;51.650;-0.522;2022-09-09T04:16:44;15.69;90.06
68912;SHT31;55953;51.650;-0.522;2022-09-09T04:19:13;15.69;90.03
68912;SHT31;55953;51.650;-0.522;2022-09-09T04:21:42;15.69;89.99
68912;SHT31;55953;51.650;-0.522;2022-09-09T04:24:09;15.68;89.94
68912;SHT31;55953;51.650;-0.522;2022-09-09T04:26:37;15.68;89.98
68912;SHT31;55953;51.650;-0.522;2022-09-09T04:29:05;15.68;90.00
68912;SHT31;55953;51.650;-0.522;2022-09-09T04:31:34;15.69;89.95
68912;SHT31;55953;51.650;-0.522;2022-09-09T04:34:02;15.67;89.81
68912;SHT31;55953;51.650;-0.522;2022-09-09T04:36:33;15.68;89.72
68912;SHT31;55953;51.650;-0.522;2022-09-09T04:39:02;15.65;89.72
68912;SHT31;55953;51.650;-0.522;2022-09-09T04:41:30;15.64;89.64
68912;SHT31;55953;51.650;-0.522;2022-09-09T04:43:58;15.65;89.65
68912;SHT31;55953;51.650;-0.522;2022-09-09T04:46:28;15.66;89.60
68912;SHT31;55953;51.650;-0.522;2022-09-09T04:48:57;15.67;89.67
68912;SHT31;55953;51.650;-0.522;2022-09-09T04:51:27;15.68;89.61
68912;SHT31;55953;51.650;-0.522;2022-09-09T04:53:55;15.71;89.54
68912;SHT31;55953;51.650;-0.522;2022-09-09T04:56:23;15.70;89.47
68912;SHT31;55953;51.650;-0.522;2022-09-09T04:58:56;15.70;89.54
68912;SHT31;55953;51.650;-0.522;2022-09-09T05:01:31;15.71;89.51
68912;SHT31;55953;51.650;-0.522;2022-09-09T05:04:02;15.70;89.42
68912;SHT31;55953;51.650;-0.522;2022-09-09T05:06:32;15.67;89.29
68912;SHT31;55953;51.650;-0.522;2022-09-09T05:09:00;15.64;89.30
68912;SHT31;55953;51.650;-0.522;2022-09-09T05:11:30;15.61;89.37
68912;SHT31;55953;51.650;-0.522;2022-09-09T05:14:19;15.57;89.40
68912;SHT31;55953;51.650;-0.522;2022-09-09T05:16:48;15.53;89.42
68912;SHT31;55953;51.650;-0.522;2022-09-09T05:19:17;15.55;89.56
68912;SHT31;55953;51.650;-0.522;2022-09-09T05:21:48;15.54;89.49
68912;SHT31;55953;51.650;-0.522;2022-09-09T05:24:19;15.53;89.44
68912;SHT31;55953;51.650;-0.522;2022-09-09T05:26:47;15.50;89.42
68912;SHT31;55953;51.650;-0.522;2022-09-09T05:29:16;15.47;89.45
68912;SHT31;55953;51.650;-0.522;2022-09-09T05:31:46;15.47;89.45
68912;SHT31;55953;51.650;-0.522;2022-09-09T05:34:16;15.46;89.45
68912;SHT31;55953;51.650;-0.522;2022-09-09T05:36:44;15.46;89.54
68912;SHT31;55953;51.650;-0.522;2022-09-09T05:39:12;15.46;89.56
68912;SHT31;55953;51.650;-0.522;2022-09-09T05:41:40;15.44;89.60
68912;SHT31;55953;51.650;-0.522;2022-09-09T05:44:08;15.39;89.56
68912;SHT31;55953;51.650;-0.522;2022-09-09T05:46:38;15.36;89.63
68912;SHT31;55953;51.650;-0.522;2022-09-09T05:49:06;15.33;89.64
68912;SHT31;55953;51.650;-0.522;2022-09-09T05:51:35;15.32;89.72
68912;SHT31;55953;51.650;-0.522;2022-09-09T05:54:06;15.30;89.64
68912;SHT31;55953;51.650;-0.522;2022-09-09T05:56:37;15.26;89.60
68912;SHT31;55953;51.650;-0.522;2022-09-09T05:59:06;15.23;89.70
68912;SHT31;55953;51.650;-0.522;2022-09-09T06:01:35;15.20;89.64
68912;SHT31;55953;51.650;-0.522;2022-09-09T06:04:09;15.17;89.65
68912;SHT31;55953;51.650;-0.522;2022-09-09T06:06:38;15.17;89.59
68912;SHT31;55953;51.650;-0.522;2022-09-09T06:09:11;15.20;89.50
68912;SHT31;55953;51.650;-0.522;2022-09-09T06:11:41;15.25;89.54
68912;SHT31;55953;51.650;-0.522;2022-09-09T06:14:10;15.31;89.37
68912;SHT31;55953;51.650;-0.522;2022-09-09T06:16:39;15.38;89.25
68912;SHT31;55953;51.650;-0.522;2022-09-09T06:19:12;15.42;89.21
68912;SHT31;55953;51.650;-0.522;2022-09-09T06:21:40;15.50;89.35
68912;SHT31;55953;51.650;-0.522;2022-09-09T06:24:08;15.53;89.07
68912;SHT31;55953;51.650;-0.522;2022-09-09T06:26:37;15.55;89.05
68912;SHT31;55953;51.650;-0.522;2022-09-09T06:29:12;15.57;88.96
68912;SHT31;55953;51.650;-0.522;2022-09-09T06:31:40;15.61;88.82
68912;SHT31;55953;51.650;-0.522;2022-09-09T06:34:17;15.65;88.81
68912;SHT31;55953;51.650;-0.522;2022-09-09T06:36:47;15.71;88.91
68912;SHT31;55953;51.650;-0.522;2022-09-09T06:39:16;15.77;88.89
68912;SHT31;55953;51.650;-0.522;2022-09-09T06:41:44;15.78;88.81
68912;SHT31;55953;51.650;-0.522;2022-09-09T06:44:35;15.81;88.84
68912;SHT31;55953;51.650;-0.522;2022-09-09T06:47:04;15.80;88.75
68912;SHT31;55953;51.650;-0.522;2022-09-09T06:49:33;15.78;88.72
68912;SHT31;55953;51.650;-0.522;2022-09-09T06:52:03;15.76;88.38
68912;SHT31;55953;51.650;-0.522;2022-09-09T06:54:31;15.72;88.38
68912;SHT31;55953;51.650;-0.522;2022-09-09T06:56:59;15.74;88.41
68912;SHT31;55953;51.650;-0.522;2022-09-09T06:59:47;15.72;88.28
68912;SHT31;55953;51.650;-0.522;2022-09-09T07:02:16;15.72;88.41
68912;SHT31;55953;51.650;-0.522;2022-09-09T07:04:44;15.76;88.53
68912;SHT31;55953;51.650;-0.522;2022-09-09T07:07:12;15.80;88.30
68912;SHT31;55953;51.650;-0.522;2022-09-09T07:09:40;15.91;88.18
68912;SHT31;55953;51.650;-0.522;2022-09-09T07:12:09;15.93;87.79
68912;SHT31;55953;51.650;-0.522;2022-09-09T07:14:38;16.01;87.78
68912;SHT31;55953;51.650;-0.522;2022-09-09T07:17:07;16.06;87.79
68912;SHT31;55953;51.650;-0.522;2022-09-09T07:19:37;16.10;87.70
68912;SHT31;55953;51.650;-0.522;2022-09-09T07:22:04;16.08;87.54
68912;SHT31;55953;51.650;-0.522;2022-09-09T07:24:33;16.05;87.45
68912;SHT31;55953;51.650;-0.522;2022-09-09T07:27:01;16.02;87.41
68912;SHT31;55953;51.650;-0.522;2022-09-09T07:29:31;16.02;87.34
68912;SHT31;55953;51.650;-0.522;2022-09-09T07:31:59;16.07;87.63
68912;SHT31;55953;51.650;-0.522;2022-09-09T07:34:31;16.14;87.42
68912;SHT31;55953;51.650;-0.522;2022-09-09T07:36:59;16.22;87.39
68912;SHT31;55953;51.650;-0.522;2022-09-09T07:39:28;16.26;87.27
68912;SHT31;55953;51.650;-0.522;2022-09-09T07:41:56;16.23;86.93
68912;SHT31;55953;51.650;-0.522;2022-09-09T07:44:26;16.16;87.13
68912;SHT31;55953;51.650;-0.522;2022-09-09T07:47:01;16.10;87.19
68912;SHT31;55953;51.650;-0.522;2022-09-09T07:49:35;16.08;87.36
68912;SHT31;55953;51.650;-0.522;2022-09-09T07:52:04;16.07;87.52
68912;SHT31;55953;51.650;-0.522;2022-09-09T07:54:33;16.04;87.43
68912;SHT31;55953;51.650;-0.522;2022-09-09T07:57:03;15.96;87.41
68912;SHT31;55953;51.650;-0.522;2022-09-09T07:59:33;15.91;87.74
68912;SHT31;55953;51.650;-0.522;2022-09-09T08:02:01;15.87;87.80
68912;SHT31;55953;51.650;-0.522;2022-09-09T08:04:30;15.80;87.77
68912;SHT31;55953;51.650;-0.522;2022-09-09T08:06:58;15.75;88.01
68912;SHT31;55953;51.650;-0.522;2022-09-09T08:09:33;15.79;88.25
68912;SHT31;55953;51.650;-0.522;2022-09-09T08:12:08;15.78;88.08
68912;SHT31;55953;51.650;-0.522;2022-09-09T08:14:36;15.79;88.34
68912;SHT31;55953;51.650;-0.522;2022-09-09T08:17:03;15.83;88.22
68912;SHT31;55953;51.650;-0.522;2022-09-09T08:19:32;15.88;88.27
68912;SHT31;55953;51.650;-0.522;2022-09-09T08:22:05;15.90;88.31
68912;SHT31;55953;51.650;-0.522;2022-09-09T08:24:35;15.92;88.21
68912;SHT31;55953;51.650;-0.522;2022-09-09T08:27:03;15.94;88.22
68912;SHT31;55953;51.650;-0.522;2022-09-09T08:29:31;16.00;88.19
68912;SHT31;55953;51.650;-0.522;2022-09-09T08:31:59;16.04;87.86
68912;SHT31;55953;51.650;-0.522;2022-09-09T08:34:28;16.04;87.89
68912;SHT31;55953;51.650;-0.522;2022-09-09T08:36:59;16.06;87.91
68912;SHT31;55953;51.650;-0.522;2022-09-09T08:39:31;16.10;87.87
68912;SHT31;55953;51.650;-0.522;2022-09-09T08:45:18;16.06;87.59
68912;SHT31;55953;51.650;-0.522;2022-09-09T08:47:55;16.09;87.51
68912;SHT31;55953;51.650;-0.522;2022-09-09T08:51:00;16.15;87.58
68912;SHT31;55953;51.650;-0.522;2022-09-09T08:53:51;16.15;87.47
68912;SHT31;55953;51.650;-0.522;2022-09-09T08:56:26;16.19;87.36
68912;SHT31;55953;51.650;-0.522;2022-09-09T08:58:59;16.27;87.05
68912;SHT31;55953;51.650;-0.522;2022-09-09T09:07:38;16.59;86.84
68912;SHT31;55953;51.650;-0.522;2022-09-09T09:10:33;16.78;86.51
68912;SHT31;55953;51.650;-0.522;2022-09-09T09:19:07;17.08;86.08
68912;SHT31;55953;51.650;-0.522;2022-09-09T09:21:49;17.18;85.62
68912;SHT31;55953;51.650;-0.522;2022-09-09T09:24:28;17.32;85.19
68912;SHT31;55953;51.650;-0.522;2022-09-09T09:27:25;17.44;85.42
68912;SHT31;55953;51.650;-0.522;2022-09-09T09:30:26;17.57;85.27
68912;SHT31;55953;51.650;-0.522;2022-09-09T09:35:43;17.36;85.13
68912;SHT31;55953;51.650;-0.522;2022-09-09T09:38:18;17.20;85.39
68912;SHT31;55953;51.650;-0.522;2022-09-09T09:41:12;17.01;85.67
68912;SHT31;55953;51.650;-0.522;2022-09-09T09:43:40;16.84;86.00
68912;SHT31;55953;51.650;-0.522;2022-09-09T09:46:19;16.74;86.43
68912;SHT31;55953;51.650;-0.522;2022-09-09T09:49:04;16.69;86.85
68912;SHT31;55953;51.650;-0.522;2022-09-09T09:51:37;16.66;86.93
68912;SHT31;55953;51.650;-0.522;2022-09-09T09:56:40;16.74;87.14
68912;SHT31;55953;51.650;-0.522;2022-09-09T09:59:32;16.85;87.22
68912;SHT31;55953;51.650;-0.522;2022-09-09T10:02:15;16.97;86.91
68912;SHT31;55953;51.650;-0.522;2022-09-09T10:05:04;17.03;86.46
68912;SHT31;55953;51.650;-0.522;2022-09-09T10:07:44;17.19;86.24
68912;SHT31;55953;51.650;-0.522;2022-09-09T10:10:24;17.49;86.66
68912;SHT31;55953;51.650;-0.522;2022-09-09T10:13:15;17.75;85.87
68912;SHT31;55953;51.650;-0.522;2022-09-09T10:15:59;17.88;85.56
68912;SHT31;55953;51.650;-0.522;2022-09-09T10:19:47;18.08;85.21
68912;SHT31;55953;51.650;-0.522;2022-09-09T10:22:11;18.28;85.67
68912;SHT31;55953;51.650;-0.522;2022-09-09T10:27:48;18.68;83.78
68912;SHT31;55953;51.650;-0.522;2022-09-09T10:33:55;18.55;83.20
68912;SHT31;55953;51.650;-0.522;2022-09-09T10:36:48;18.44;83.42
68912;SHT31;55953;51.650;-0.522;2022-09-09T10:42:11;18.61;83.14
68912;SHT31;55953;51.650;-0.522;2022-09-09T10:44:51;18.79;82.96
68912;SHT31;55953;51.650;-0.522;2022-09-09T10:47:44;18.95;81.96
68912;SHT31;55953;51.650;-0.522;2022-09-09T10:50:33;18.94;81.33
68912;SHT31;55953;51.650;-0.522;2022-09-09T10:56:16;18.83;81.92
68912;SHT31;55953;51.650;-0.522;2022-09-09T11:01:33;18.97;81.81
68912;SHT31;55953;51.650;-0.522;2022-09-09T11:07:00;19.25;80.35
68912;SHT31;55953;51.650;-0.522;2022-09-09T11:09:40;19.35;80.49
68912;SHT31;55953;51.650;-0.522;2022-09-09T11:12:18;19.30;77.80
68912;SHT31;55953;51.650;-0.522;2022-09-09T11:14:52;19.29;78.46
68912;SHT31;55953;51.650;-0.522;2022-09-09T11:17:39;19.35;79.15
68912;SHT31;55953;51.650;-0.522;2022-09-09T11:20:14;19.54;79.02
68912;SHT31;55953;51.650;-0.522;2022-09-09T11:25:29;19.85;78.07
68912;SHT31;55953;51.650;-0.522;2022-09-09T11:31:14;19.93;76.91
68912;SHT31;55953;51.650;-0.522;2022-09-09T11:37:05;19.52;76.29
68912;SHT31;55953;51.650;-0.522;2022-09-09T11:42:48;19.48;77.77
68912;SHT31;55953;51.650;-0.522;2022-09-09T11:45:27;19.33;76.55
68912;SHT31;55953;51.650;-0.522;2022-09-09T11:48:00;19.15;77.31
68912;SHT31;55953;51.650;-0.522;2022-09-09T11:50:30;19.08;76.68
68912;SHT31;55953;51.650;-0.522;2022-09-09T11:58:44;19.32;77.04
68912;SHT31;55953;51.650;-0.522;2022-09-09T12:07:05;19.45;76.64
68912;SHT31;55953;51.650;-0.522;2022-09-09T12:09:59;19.67;75.67
68912;SHT31;55953;51.650;-0.522;2022-09-09T12:12:49;19.68;75.18
68912;SHT31;55953;51.650;-0.522;2022-09-09T12:15:22;19.63;75.24
68912;SHT31;55953;51.650;-0.522;2022-09-09T12:17:57;19.68;75.93
68912;SHT31;55953;51.650;-0.522;2022-09-09T12:32:27;19.56;75.74
68912;SHT31;55953;51.650;-0.522;2022-09-09T12:35:04;19.52;76.02
68912;SHT31;55953;51.650;-0.522;2022-09-09T12:37:41;19.41;76.04
68912;SHT31;55953;51.650;-0.522;2022-09-09T12:40:28;19.32;75.80
68912;SHT31;55953;51.650;-0.522;2022-09-09T12:43:16;19.41;77.01
68912;SHT31;55953;51.650;-0.522;2022-09-09T12:45:49;19.50;76.76
68912;SHT31;55953;51.650;-0.522;2022-09-09T12:48:27;19.50;76.28
68912;SHT31;55953;51.650;-0.522;2022-09-09T12:51:05;19.55;76.82
68912;SHT31;55953;51.650;-0.522;2022-09-09T12:53:48;19.52;76.43
68912;SHT31;55953;51.650;-0.522;2022-09-09T12:56:18;19.45;76.05
68912;SHT31;55953;51.650;-0.522;2022-09-09T12:58:50;19.35;75.66
68912;SHT31;55953;51.650;-0.522;2022-09-09T13:01:21;19.27;76.49
68912;SHT31;55953;51.650;-0.522;2022-09-09T13:03:55;19.25;76.38
68912;SHT31;55953;51.650;-0.522;2022-09-09T13:06:30;19.30;76.69
68912;SHT31;55953;51.650;-0.522;2022-09-09T13:09:01;19.34;77.10
68912;SHT31;55953;51.650;-0.522;2022-09-09T13:11:37;19.33;76.59
68912;SHT31;55953;51.650;-0.522;2022-09-09T13:14:17;19.33;76.29
68912;SHT31;55953;51.650;-0.522;2022-09-09T13:17:00;19.34;75.55
68912;SHT31;55953;51.650;-0.522;2022-09-09T13:19:36;19.36;75.87
68912;SHT31;55953;51.650;-0.522;2022-09-09T13:25:01;19.37;75.60
68912;SHT31;55953;51.650;-0.522;2022-09-09T13:27:55;19.39;75.53
68912;SHT31;55953;51.650;-0.522;2022-09-09T13:38:38;19.57;75.58
68912;SHT31;55953;51.650;-0.522;2022-09-09T13:41:23;19.67;75.37
68912;SHT31;55953;51.650;-0.522;2022-09-09T13:43:57;19.82;75.48
68912;SHT31;55953;51.650;-0.522;2022-09-09T13:46:37;19.89;74.94
68912;SHT31;55953;51.650;-0.522;2022-09-09T13:51:39;19.88;75.12
68912;SHT31;55953;51.650;-0.522;2022-09-09T13:54:10;20.02;74.97
68912;SHT31;55953;51.650;-0.522;2022-09-09T13:56:39;20.22;74.58
68912;SHT31;55953;51.650;-0.522;2022-09-09T13:59:09;20.38;74.03
68912;SHT31;55953;51.650;-0.522;2022-09-09T14:01:43;20.55;73.09
68912;SHT31;55953;51.650;-0.522;2022-09-09T14:04:11;20.60;72.07
68912;SHT31;55953;51.650;-0.522;2022-09-09T14:06:40;20.59;72.46
68912;SHT31;55953;51.650;-0.522;2022-09-09T14:09:11;20.59;72.11
68912;SHT31;55953;51.650;-0.522;2022-09-09T14:11:43;20.53;71.97
68912;SHT31;55953;51.650;-0.522;2022-09-09T14:14:15;20.42;72.18
68912;SHT31;55953;51.650;-0.522;2022-09-09T14:16:43;20.34;72.77
68912;SHT31;55953;51.650;-0.522;2022-09-09T14:19:11;20.25;72.70
68912;SHT31;55953;51.650;-0.522;2022-09-09T14:21:39;20.07;72.47
68912;SHT31;55953;51.650;-0.522;2022-09-09T14:24:07;19.89;73.79
68912;SHT31;55953;51.650;-0.522;2022-09-09T14:26:34;19.76;74.20
68912;SHT31;55953;51.650;-0.522;2022-09-09T14:29:02;19.59;75.40
68912;SHT31;55953;51.650;-0.522;2022-09-09T14:31:30;19.44;77.17
68912;SHT31;55953;51.650;-0.522;2022-09-09T14:33:58;19.30;76.82
68912;SHT31;55953;51.650;-0.522;2022-09-09T14:36:26;19.12;77.12
68912;SHT31;55953;51.650;-0.522;2022-09-09T14:38:54;18.95;78.43
68912;SHT31;55953;51.650;-0.522;2022-09-09T14:41:21;18.78;79.00
68912;SHT31;55953;51.650;-0.522;2022-09-09T14:43:49;18.61;79.71
68912;SHT31;55953;51.650;-0.522;2022-09-09T14:46:18;18.45;80.34
68912;SHT31;55953;51.650;-0.522;2022-09-09T14:48:47;18.31;80.55
68912;SHT31;55953;51.650;-0.522;2022-09-09T14:51:27;18.20;81.02
68912;SHT31;55953;51.650;-0.522;2022-09-09T14:53:56;18.13;81.27
68912;SHT31;55953;51.650;-0.522;2022-09-09T14:56:27;18.11;81.57
68912;SHT31;55953;51.650;-0.522;2022-09-09T14:58:59;18.10;81.80
68912;SHT31;55953;51.650;-0.522;2022-09-09T15:01:28;18.09;81.96
68912;SHT31;55953;51.650;-0.522;2022-09-09T15:03:59;18.17;82.63
68912;SHT31;55953;51.650;-0.522;2022-09-09T15:06:31;18.28;82.40
68912;SHT31;55953;51.650;-0.522;2022-09-09T15:09:01;18.43;82.08
68912;SHT31;55953;51.650;-0.522;2022-09-09T15:11:30;18.55;82.03
68912;SHT31;55953;51.650;-0.522;2022-09-09T15:14:05;18.72;82.00
68912;SHT31;55953;51.650;-0.522;2022-09-09T15:16:35;18.80;81.62
68912;SHT31;55953;51.650;-0.522;2022-09-09T15:19:03;18.82;80.72
68912;SHT31;55953;51.650;-0.522;2022-09-09T15:21:32;18.80;80.99
68912;SHT31;55953;51.650;-0.522;2022-09-09T15:24:02;18.86;81.26
68912;SHT31;55953;51.650;-0.522;2022-09-09T15:26:31;18.90;81.32
68912;SHT31;55953;51.650;-0.522;2022-09-09T15:28:59;18.90;81.03
68912;SHT31;55953;51.650;-0.522;2022-09-09T15:31:28;18.90;81.03
68912;SHT31;55953;51.650;-0.522;2022-09-09T15:33:59;18.94;81.58
68912;SHT31;55953;51.650;-0.522;2022-09-09T15:39:08;18.97;80.79
68912;SHT31;55953;51.650;-0.522;2022-09-09T15:41:44;18.96;80.63
68912;SHT31;55953;51.650;-0.522;2022-09-09T15:44:14;18.92;80.48
68912;SHT31;55953;51.650;-0.522;2022-09-09T15:46:44;18.93;80.66
68912;SHT31;55953;51.650;-0.522;2022-09-09T15:49:22;18.89;80.05
68912;SHT31;55953;51.650;-0.522;2022-09-09T15:51:53;18.88;80.61
68912;SHT31;55953;51.650;-0.522;2022-09-09T15:54:25;18.84;80.16
68912;SHT31;55953;51.650;-0.522;2022-09-09T15:56:57;18.83;80.62
68912;SHT31;55953;51.650;-0.522;2022-09-09T15:59:28;18.83;80.57
68912;SHT31;55953;51.650;-0.522;2022-09-09T16:01:58;18.84;81.08
68912;SHT31;55953;51.650;-0.522;2022-09-09T16:04:30;18.88;80.96
68912;SHT31;55953;51.650;-0.522;2022-09-09T16:06:59;18.88;81.26
68912;SHT31;55953;51.650;-0.522;2022-09-09T16:09:30;18.91;81.55
68912;SHT31;55953;51.650;-0.522;2022-09-09T16:12:00;18.92;81.59
68912;SHT31;55953;51.650;-0.522;2022-09-09T16:14:29;18.87;81.62
68912;SHT31;55953;51.650;-0.522;2022-09-09T16:17:05;18.84;81.71
68912;SHT31;55953;51.650;-0.522;2022-09-09T16:19:33;18.82;81.82
68912;SHT31;55953;51.650;-0.522;2022-09-09T16:22:02;18.78;81.40
68912;SHT31;55953;51.650;-0.522;2022-09-09T16:24:31;18.79;81.36
68912;SHT31;55953;51.650;-0.522;2022-09-09T16:26:58;18.75;81.49
68912;SHT31;55953;51.650;-0.522;2022-09-09T16:29:26;18.70;81.50
68912;SHT31;55953;51.650;-0.522;2022-09-09T16:31:54;18.64;81.98
68912;SHT31;55953;51.650;-0.522;2022-09-09T16:34:27;18.64;82.18
68912;SHT31;55953;51.650;-0.522;2022-09-09T16:36:55;18.61;82.12
68912;SHT31;55953;51.650;-0.522;2022-09-09T16:39:23;18.51;82.09
68912;SHT31;55953;51.650;-0.522;2022-09-09T16:41:51;18.47;82.52
68912;SHT31;55953;51.650;-0.522;2022-09-09T16:44:19;18.43;83.05
68912;SHT31;55953;51.650;-0.522;2022-09-09T16:46:48;18.40;83.24
68912;SHT31;55953;51.650;-0.522;2022-09-09T16:49:26;18.39;83.10
68912;SHT31;55953;51.650;-0.522;2022-09-09T16:51:57;18.40;83.21
68912;SHT31;55953;51.650;-0.522;2022-09-09T16:54:26;18.40;83.09
68912;SHT31;55953;51.650;-0.522;2022-09-09T16:56:54;18.30;83.27
68912;SHT31;55953;51.650;-0.522;2022-09-09T16:59:22;18.23;83.07
68912;SHT31;55953;51.650;-0.522;2022-09-09T17:01:51;18.19;83.40
68912;SHT31;55953;51.650;-0.522;2022-09-09T17:04:24;18.17;83.50
68912;SHT31;55953;51.650;-0.522;2022-09-09T17:06:55;18.18;83.74
68912;SHT31;55953;51.650;-0.522;2022-09-09T17:09:24;18.22;83.60
68912;SHT31;55953;51.650;-0.522;2022-09-09T17:11:56;18.30;83.54
68912;SHT31;55953;51.650;-0.522;2022-09-09T17:14:25;18.33;83.46
68912;SHT31;55953;51.650;-0.522;2022-09-09T17:16:53;18.35;83.48
68912;SHT31;55953;51.650;-0.522;2022-09-09T17:19:21;18.40;83.50
68912;SHT31;55953;51.650;-0.522;2022-09-09T17:21:48;18.42;83.80
68912;SHT31;55953;51.650;-0.522;2022-09-09T17:24:36;18.38;83.16
68912;SHT31;55953;51.650;-0.522;2022-09-09T17:27:06;18.31;83.14
68912;SHT31;55953;51.650;-0.522;2022-09-09T17:29:34;18.22;83.30
68912;SHT31;55953;51.650;-0.522;2022-09-09T17:32:03;18.17;83.33
68912;SHT31;55953;51.650;-0.522;2022-09-09T17:34:35;18.14;83.59
68912;SHT31;55953;51.650;-0.522;2022-09-09T17:37:05;18.07;83.61
68912;SHT31;55953;51.650;-0.522;2022-09-09T17:39:33;18.00;83.68
68912;SHT31;55953;51.650;-0.522;2022-09-09T17:42:01;17.96;83.95
68912;SHT31;55953;51.650;-0.522;2022-09-09T17:44:29;17.91;84.17
68912;SHT31;55953;51.650;-0.522;2022-09-09T17:46:59;17.80;84.31
68912;SHT31;55953;51.650;-0.522;2022-09-09T17:49:27;17.75;84.44
68912;SHT31;55953;51.650;-0.522;2022-09-09T17:51:55;17.70;84.33
68912;SHT31;55953;51.650;-0.522;2022-09-09T17:54:23;17.63;84.43
68912;SHT31;55953;51.650;-0.522;2022-09-09T17:56:51;17.55;84.55
68912;SHT31;55953;51.650;-0.522;2022-09-09T17:59:19;17.46;84.77
68912;SHT31;55953;51.650;-0.522;2022-09-09T18:01:47;17.37;84.77
68912;SHT31;55953;51.650;-0.522;2022-09-09T18:04:17;17.31;85.16